Time;durP1;ratioP1;P1;durP2;ratioP2;P2;SDS_P1;SDS_P2;PMS_P1;PMS_P2;Temp;Humidity;BMP_temperature;BMP_pressure;BME280_temperature;BME280_humidity;BME280_pressure;Samples;Min_cycle;Max_cycle;Signal;HPM_P1;HPM_P2
2022/07/23 00:00:12;;;;;;;5.97;5.32;;;27.40;90.70;;;;;;5033966;28;20478;-27
2022/07/23 00:02:38;;;;;;;5.85;5.03;;;27.40;90.70;;;;;;5034444;28;20044;-26
2022/07/23 00:05:04;;;;;;;5.50;5.00;;;27.40;91.10;;;;;;5033735;28;20026;-26
2022/07/23 00:07:30;;;;;;;5.72;5.10;;;27.40;90.70;;;;;;5016247;28;20028;-26
2022/07/23 00:09:55;;;;;;;5.32;4.80;;;27.40;90.70;;;;;;5033746;28;20025;-26
2022/07/23 00:12:21;;;;;;;5.55;4.82;;;27.40;90.70;;;;;;5033855;28;20025;-27
2022/07/23 00:14:47;;;;;;;5.40;4.88;;;27.40;90.70;;;;;;5033824;28;20056;-26
2022/07/23 00:17:12;;;;;;;6.60;5.10;;;27.40;90.70;;;;;;5033759;28;20036;-27
2022/07/23 00:19:38;;;;;;;6.00;4.95;;;27.40;90.70;;;;;;5033021;28;20026;-26
2022/07/23 00:22:04;;;;;;;6.68;5.25;;;27.30;90.60;;;;;;5033678;28;20025;-26
2022/07/23 00:24:29;;;;;;;5.10;4.55;;;27.30;90.60;;;;;;5033612;28;20108;-26
2022/07/23 00:26:55;;;;;;;5.78;5.20;;;27.30;90.60;;;;;;5033603;28;20111;-26
2022/07/23 00:29:21;;;;;;;5.70;5.20;;;27.30;90.60;;;;;;5033467;28;20495;-27
2022/07/23 00:31:46;;;;;;;5.22;4.72;;;27.30;90.60;;;;;;5033653;28;20026;-26
2022/07/23 00:34:12;;;;;;;5.50;5.10;;;27.30;90.70;;;;;;5033685;28;20209;-26
2022/07/23 00:36:38;;;;;;;5.47;4.97;;;27.30;90.70;;;;;;5033985;28;20475;-26
2022/07/23 00:39:03;;;;;;;5.53;5.03;;;27.30;90.80;;;;;;5033723;28;20475;-27
2022/07/23 00:41:29;;;;;;;5.80;5.30;;;27.30;90.80;;;;;;5037744;28;20029;-26
2022/07/23 00:43:55;;;;;;;5.35;4.82;;;27.30;90.80;;;;;;5044066;28;20033;-27
2022/07/23 00:46:21;;;;;;;6.30;5.20;;;27.30;90.90;;;;;;5043917;28;20028;-26
2022/07/23 00:48:47;;;;;;;6.00;5.40;;;27.30;90.90;;;;;;5025762;28;20033;-26
2022/07/23 00:51:15;;;;;;;8.25;5.32;;;27.30;90.90;;;;;;5043803;28;20039;-26
2022/07/23 00:53:42;;;;;;;5.50;4.88;;;27.30;90.90;;;;;;5037139;28;20075;-26
2022/07/23 00:56:07;;;;;;;5.40;4.90;;;27.30;90.90;;;;;;5033117;28;20068;-26
2022/07/23 00:58:35;;;;;;;5.47;4.80;;;27.30;90.90;;;;;;5033458;28;20053;-26
2022/07/23 01:01:01;;;;;;;6.60;5.03;;;27.30;90.90;;;;;;5032959;28;20073;-26
2022/07/23 01:03:26;;;;;;;5.20;4.70;;;27.20;90.90;;;;;;5032666;28;20143;-26
2022/07/23 01:05:52;;;;;;;5.38;4.63;;;27.30;90.90;;;;;;5032927;28;20486;-27
2022/07/23 01:08:18;;;;;;;4.85;4.45;;;27.30;90.90;;;;;;5032579;28;20021;-26
2022/07/23 01:10:44;;;;;;;6.05;5.32;;;27.20;90.90;;;;;;5032776;28;20038;-26
2022/07/23 01:13:10;;;;;;;5.70;5.20;;;27.20;90.90;;;;;;5032723;28;20021;-26
2022/07/23 01:15:37;;;;;;;5.57;5.07;;;27.30;90.90;;;;;;5032792;28;20156;-26
2022/07/23 01:18:04;;;;;;;5.47;4.97;;;27.20;90.90;;;;;;5032547;28;20033;-27
2022/07/23 01:20:32;;;;;;;5.10;4.70;;;27.20;90.90;;;;;;5032538;28;20390;-26
2022/07/23 01:22:58;;;;;;;5.18;4.68;;;27.20;90.90;;;;;;5032544;28;20021;-27
2022/07/23 01:25:24;;;;;;;5.35;4.85;;;27.20;90.90;;;;;;5032586;28;20371;-26
2022/07/23 01:27:51;;;;;;;5.85;5.28;;;27.20;91.00;;;;;;5032496;28;20076;-27
2022/07/23 01:30:16;;;;;;;5.28;4.78;;;27.20;90.90;;;;;;5031527;28;20022;-27
2022/07/23 01:32:42;;;;;;;5.18;4.60;;;27.20;90.90;;;;;;5032626;28;20116;-27
2022/07/23 01:35:09;;;;;;;5.90;5.30;;;27.20;90.90;;;;;;5032323;28;20030;-27
2022/07/23 01:37:35;;;;;;;5.32;4.93;;;27.20;91.00;;;;;;5032330;28;20040;-26
2022/07/23 01:40:01;;;;;;;5.07;4.57;;;27.20;91.00;;;;;;5032073;28;20026;-27
2022/07/23 01:42:27;;;;;;;5.53;5.03;;;27.20;91.00;;;;;;5032268;28;20036;-27
2022/07/23 01:44:52;;;;;;;5.43;4.93;;;27.20;91.10;;;;;;5032056;28;20088;-27
2022/07/23 01:47:18;;;;;;;5.45;4.95;;;27.20;91.10;;;;;;5032131;28;20029;-26
2022/07/23 01:49:43;;;;;;;5.07;4.57;;;27.10;91.40;;;;;;5031985;28;20024;-26
2022/07/23 01:52:10;;;;;;;5.47;4.97;;;27.20;91.10;;;;;;5032091;28;20025;-26
2022/07/23 01:54:38;;;;;;;5.80;5.25;;;27.20;91.10;;;;;;5032036;28;20025;-27
2022/07/23 01:57:04;;;;;;;5.45;4.95;;;27.20;91.10;;;;;;5032055;28;20026;-26
2022/07/23 01:59:30;;;;;;;5.05;4.55;;;27.10;91.10;;;;;;5031726;28;20093;-27
2022/07/23 02:01:56;;;;;;;5.32;4.82;;;27.20;91.10;;;;;;5031897;28;20451;-26
2022/07/23 02:04:24;;;;;;;4.80;4.30;;;27.10;91.10;;;;;;5031930;28;20105;-27
2022/07/23 02:06:50;;;;;;;6.07;5.20;;;27.10;91.10;;;;;;5031925;28;20026;-27
2022/07/23 02:09:16;;;;;;;5.03;4.53;;;27.10;91.20;;;;;;5031651;28;20022;-27
2022/07/23 02:11:42;;;;;;;5.15;4.65;;;27.10;91.20;;;;;;5031943;28;20024;-27
2022/07/23 02:14:08;;;;;;;6.20;4.80;;;27.10;91.20;;;;;;5031664;28;20378;-26
2022/07/23 02:16:34;;;;;;;5.22;4.72;;;27.10;91.20;;;;;;5031861;28;20048;-27
2022/07/23 02:19:00;;;;;;;5.68;5.13;;;27.10;91.20;;;;;;5031651;28;20025;-27
2022/07/23 02:21:26;;;;;;;5.20;4.70;;;27.10;91.20;;;;;;5031790;28;20363;-26
2022/07/23 02:23:51;;;;;;;4.80;4.35;;;27.10;91.20;;;;;;5031452;28;20479;-27
2022/07/23 02:26:17;;;;;;;5.30;4.80;;;27.10;91.20;;;;;;5031816;28;20025;-27
2022/07/23 02:28:43;;;;;;;4.82;4.43;;;27.10;91.30;;;;;;5031456;28;20021;-27
2022/07/23 02:31:08;;;;;;;5.60;5.07;;;27.10;91.30;;;;;;5031734;28;20026;-27
2022/07/23 02:33:34;;;;;;;5.53;5.03;;;27.10;91.30;;;;;;5031980;28;20402;-26
2022/07/23 02:36:00;;;;;;;5.50;4.85;;;27.10;91.30;;;;;;5031831;28;20525;-26
2022/07/23 02:38:26;;;;;;;5.10;4.55;;;27.00;91.30;;;;;;5031404;28;20483;-27
2022/07/23 02:40:52;;;;;;;6.00;4.20;;;27.00;91.30;;;;;;5032111;28;20025;-27
2022/07/23 02:43:17;;;;;;;5.30;4.82;;;27.00;91.30;;;;;;5035330;28;20029;-27
2022/07/23 02:45:43;;;;;;;5.03;4.53;;;27.00;91.30;;;;;;5035541;28;20029;-26
2022/07/23 02:48:08;;;;;;;5.55;5.05;;;27.00;91.30;;;;;;5035555;28;20074;-27
2022/07/23 02:50:34;;;;;;;5.25;4.75;;;27.00;91.30;;;;;;5035326;28;20028;-26
2022/07/23 02:53:00;;;;;;;4.93;4.53;;;27.00;91.30;;;;;;5035352;28;20037;-27
2022/07/23 02:55:26;;;;;;;5.72;4.68;;;27.00;91.30;;;;;;5035418;28;20461;-26
2022/07/23 02:57:52;;;;;;;5.80;4.78;;;27.00;91.30;;;;;;5035143;28;20021;-26
2022/07/23 03:00:18;;;;;;;5.05;4.65;;;27.00;91.30;;;;;;5035133;28;20029;-26
2022/07/23 03:02:43;;;;;;;6.43;4.82;;;27.00;91.30;;;;;;5035189;28;20390;-27
2022/07/23 03:05:09;;;;;;;5.82;4.78;;;27.00;91.30;;;;;;5035057;28;20037;-26
2022/07/23 03:07:35;;;;;;;5.15;4.70;;;27.00;91.30;;;;;;5035116;28;20060;-27
2022/07/23 03:10:01;;;;;;;5.13;4.63;;;27.00;91.30;;;;;;5034953;28;20021;-27
2022/07/23 03:12:26;;;;;;;5.25;4.75;;;27.00;91.30;;;;;;5034977;28;20060;-26
2022/07/23 03:14:52;;;;;;;4.63;4.22;;;27.00;91.30;;;;;;5034974;28;20429;-26
2022/07/23 03:17:17;;;;;;;5.32;4.82;;;27.00;91.30;;;;;;5034995;28;20040;-27
2022/07/23 03:19:43;;;;;;;5.50;5.00;;;27.00;91.40;;;;;;5034729;28;20413;-27
2022/07/23 03:22:09;;;;;;;6.60;4.88;;;27.00;91.30;;;;;;5035152;28;20038;-27
2022/07/23 03:27:19;;;;;;;;;;;27.00;91.40;;;;;;5035267;28;20083;-26
2022/07/23 03:29:45;;;;;;;5.13;4.65;;;26.90;91.30;;;;;;5034532;28;19967;-26
2022/07/23 03:32:11;;;;;;;5.20;4.70;;;26.90;91.30;;;;;;5034775;28;20447;-26
2022/07/23 03:34:37;;;;;;;6.10;4.95;;;26.90;91.30;;;;;;5034520;28;20065;-26
2022/07/23 03:37:02;;;;;;;4.78;4.30;;;26.90;91.30;;;;;;5034572;28;20021;-26
2022/07/23 03:39:28;;;;;;;5.38;4.68;;;26.90;91.30;;;;;;5034273;28;20030;-26
2022/07/23 03:41:54;;;;;;;7.70;5.03;;;26.90;91.30;;;;;;5034385;28;20124;-27
2022/07/23 03:44:20;;;;;;;5.55;4.82;;;26.90;91.40;;;;;;5034422;28;20017;-26
2022/07/23 03:46:45;;;;;;;5.38;4.78;;;26.90;91.30;;;;;;5034452;28;20532;-26
2022/07/23 03:49:11;;;;;;;5.15;4.65;;;26.90;91.30;;;;;;5034177;28;20189;-26
2022/07/23 03:51:37;;;;;;;4.75;4.28;;;26.90;91.30;;;;;;5034328;28;20049;-26
2022/07/23 03:54:02;;;;;;;5.30;4.80;;;26.90;91.40;;;;;;5033289;28;20393;-27
2022/07/23 03:56:28;;;;;;;5.72;4.72;;;26.90;91.40;;;;;;5034261;28;20037;-26
2022/07/23 03:58:53;;;;;;;5.78;4.70;;;26.90;91.40;;;;;;5033934;28;20029;-26
2022/07/23 04:01:19;;;;;;;5.07;4.40;;;26.90;91.40;;;;;;5034576;28;20068;-27
2022/07/23 04:03:46;;;;;;;5.22;4.72;;;26.90;91.40;;;;;;5033905;28;20031;-26
2022/07/23 04:06:12;;;;;;;6.10;4.65;;;26.80;91.30;;;;;;5034038;28;20018;-27
2022/07/23 04:08:37;;;;;;;5.10;4.60;;;26.80;91.30;;;;;;5033771;28;20048;-26
2022/07/23 04:11:03;;;;;;;5.07;4.57;;;26.80;91.30;;;;;;5034035;28;20026;-27
2022/07/23 04:13:29;;;;;;;6.93;5.00;;;26.90;91.40;;;;;;5033845;28;20099;-26
2022/07/23 04:15:55;;;;;;;5.32;4.20;;;26.80;91.30;;;;;;5033866;28;20025;-27
2022/07/23 04:18:23;;;;;;;5.07;4.68;;;26.80;91.30;;;;;;5033587;28;20036;-26
2022/07/23 04:20:50;;;;;;;4.68;4.28;;;26.80;91.30;;;;;;5034228;28;20468;-26
2022/07/23 04:23:16;;;;;;;4.95;4.45;;;26.80;91.30;;;;;;5033328;28;20033;-26
2022/07/23 04:25:42;;;;;;;5.80;5.20;;;26.80;91.30;;;;;;5033982;28;20391;-26
2022/07/23 04:28:08;;;;;;;4.65;4.20;;;26.80;91.30;;;;;;5033696;28;20040;-27
2022/07/23 04:30:34;;;;;;;5.57;4.60;;;26.80;91.30;;;;;;5033697;28;20534;-26
2022/07/23 04:33:00;;;;;;;5.10;4.60;;;26.80;91.40;;;;;;5033489;28;20029;-26
2022/07/23 04:35:25;;;;;;;5.05;4.60;;;26.80;91.40;;;;;;5033476;28;20022;-26
2022/07/23 04:37:51;;;;;;;4.70;4.30;;;26.80;91.40;;;;;;5015478;28;20112;-26
2022/07/23 04:40:17;;;;;;;4.65;4.25;;;26.80;91.40;;;;;;5033180;28;20037;-26
2022/07/23 04:42:43;;;;;;;5.13;4.72;;;26.70;91.40;;;;;;5033287;28;20017;-27
2022/07/23 04:45:09;;;;;;;5.20;4.35;;;26.70;91.40;;;;;;5033260;28;20032;-26
2022/07/23 04:47:34;;;;;;;5.05;4.55;;;26.70;91.40;;;;;;5033250;28;20030;-26
2022/07/23 04:50:00;;;;;;;5.47;4.40;;;26.70;91.40;;;;;;5015238;28;20037;-27
2022/07/23 04:52:26;;;;;;;4.97;4.50;;;26.70;91.40;;;;;;5033052;28;20087;-27
2022/07/23 04:54:51;;;;;;;4.90;4.40;;;26.70;91.40;;;;;;5033073;28;20108;-26
2022/07/23 04:57:17;;;;;;;5.20;4.70;;;26.70;91.40;;;;;;5033079;28;20471;-26
2022/07/23 04:59:43;;;;;;;4.35;3.95;;;26.70;91.40;;;;;;5032813;28;20042;-27
2022/07/23 05:02:08;;;;;;;5.80;5.20;;;26.70;91.40;;;;;;5032923;28;20028;-26
2022/07/23 05:04:34;;;;;;;4.88;4.40;;;26.70;91.40;;;;;;5031859;28;20025;-26
2022/07/23 05:06:59;;;;;;;5.97;4.85;;;26.70;91.40;;;;;;5032889;28;20018;-26
2022/07/23 05:09:25;;;;;;;4.80;4.40;;;26.70;91.40;;;;;;5032596;28;20022;-26
2022/07/23 05:11:51;;;;;;;5.68;5.07;;;26.70;91.40;;;;;;5032764;28;20032;-27
2022/07/23 05:14:16;;;;;;;4.78;4.30;;;26.70;91.40;;;;;;5032683;28;20029;-26
2022/07/23 05:16:42;;;;;;;4.70;4.30;;;26.70;91.40;;;;;;5033088;28;20017;-26
2022/07/23 05:19:08;;;;;;;5.07;4.57;;;26.60;91.30;;;;;;5032943;28;20040;-26
2022/07/23 05:21:34;;;;;;;5.25;4.55;;;26.60;91.30;;;;;;5032491;28;20037;-27
2022/07/23 05:23:59;;;;;;;5.20;4.70;;;26.60;91.40;;;;;;5032793;28;20341;-26
2022/07/23 05:26:25;;;;;;;5.35;4.85;;;26.60;91.40;;;;;;5032498;28;20425;-26
2022/07/23 05:28:51;;;;;;;5.25;4.63;;;26.60;91.40;;;;;;5032305;28;20029;-26
2022/07/23 05:31:17;;;;;;;5.05;4.55;;;26.60;91.40;;;;;;5032429;28;20028;-26
2022/07/23 05:33:42;;;;;;;5.00;4.50;;;26.60;91.40;;;;;;5032445;28;20028;-26
2022/07/23 05:36:08;;;;;;;4.95;4.45;;;26.60;91.40;;;;;;5032292;28;20485;-26
2022/07/23 05:38:34;;;;;;;5.05;4.55;;;26.50;91.30;;;;;;5032011;28;20083;-26
2022/07/23 05:41:00;;;;;;;4.70;4.30;;;26.60;91.40;;;;;;5032286;28;20036;-26
2022/07/23 05:43:26;;;;;;;4.95;4.45;;;26.60;91.40;;;;;;5032140;28;20028;-26
2022/07/23 05:45:52;;;;;;;5.20;4.70;;;26.60;91.40;;;;;;5032373;28;20475;-26
2022/07/23 05:48:17;;;;;;;5.80;5.10;;;26.60;91.40;;;;;;5032043;28;20534;-26
2022/07/23 05:50:43;;;;;;;5.25;4.68;;;26.60;91.40;;;;;;5031987;28;20029;-26
2022/07/23 05:53:09;;;;;;;5.15;4.70;;;26.60;91.40;;;;;;5032064;28;20032;-26
2022/07/23 05:55:34;;;;;;;5.05;4.47;;;26.60;91.40;;;;;;5032063;28;20414;-26
2022/07/23 05:58:00;;;;;;;5.35;4.85;;;26.60;91.40;;;;;;5032008;28;20028;-26
2022/07/23 06:00:27;;;;;;;5.15;4.65;;;26.60;91.40;;;;;;5031836;28;20508;-26
2022/07/23 06:02:53;;;;;;;5.10;4.60;;;26.60;91.40;;;;;;5031996;28;20036;-26
2022/07/23 06:05:19;;;;;;;5.00;4.50;;;26.60;91.40;;;;;;5031793;28;20022;-26
2022/07/23 06:07:44;;;;;;;5.70;4.70;;;26.60;91.40;;;;;;5031883;28;20037;-26
2022/07/23 06:10:10;;;;;;;5.03;4.63;;;26.60;91.30;;;;;;5031780;28;20021;-26
2022/07/23 06:12:36;;;;;;;4.60;4.20;;;26.60;91.30;;;;;;5031953;28;20032;-26
2022/07/23 06:15:02;;;;;;;5.18;4.68;;;26.60;91.30;;;;;;5031775;28;20087;-26
2022/07/23 06:17:28;;;;;;;6.82;4.80;;;26.60;91.30;;;;;;5031410;28;20029;-26
2022/07/23 06:19:54;;;;;;;5.00;4.50;;;26.60;91.30;;;;;;5031546;28;20021;-26
2022/07/23 06:22:20;;;;;;;5.82;4.68;;;26.60;91.30;;;;;;5031711;28;20114;-26
2022/07/23 06:24:46;;;;;;;4.95;4.55;;;26.60;91.40;;;;;;5031597;28;20037;-26
2022/07/23 06:27:12;;;;;;;4.80;3.65;;;26.60;91.40;;;;;;5014018;28;20025;-26
2022/07/23 06:29:38;;;;;;;4.22;3.03;;;26.50;91.30;;;;;;5013894;28;20025;-25
2022/07/23 06:32:03;;;;;;;4.93;3.65;;;26.40;91.50;;;;;;5031818;28;20027;-26
2022/07/23 06:34:29;;;;;;;9.15;3.78;;;26.20;91.60;;;;;;5031505;28;20104;-25
2022/07/23 06:36:55;;;;;;;5.40;3.45;;;26.10;91.70;;;;;;5031719;28;20459;-26
2022/07/23 06:39:20;;;;;;;4.53;3.13;;;26.00;91.80;;;;;;5031429;28;20040;-25
2022/07/23 06:41:46;;;;;;;5.95;3.33;;;25.90;91.90;;;;;;5031604;28;20032;-25
2022/07/23 06:44:11;;;;;;;7.93;3.80;;;25.90;92.00;;;;;;5031546;28;20032;-25
2022/07/23 06:46:37;;;;;;;6.25;3.42;;;25.90;92.10;;;;;;5031726;28;20025;-26
2022/07/23 06:49:04;;;;;;;6.18;3.72;;;25.80;92.10;;;;;;5031778;28;20029;-25
2022/07/23 06:51:29;;;;;;;4.15;3.20;;;25.80;92.10;;;;;;5031638;28;20018;-25
2022/07/23 06:53:55;;;;;;;4.45;3.30;;;25.80;92.10;;;;;;5013962;28;20148;-25
2022/07/23 06:56:21;;;;;;;6.32;3.60;;;25.70;92.00;;;;;;5031530;28;20029;-25
2022/07/23 06:58:47;;;;;;;5.75;3.45;;;25.70;91.90;;;;;;5031700;28;20024;-25
2022/07/23 07:01:12;;;;;;;5.15;3.88;;;25.70;91.80;;;;;;5031637;28;20029;-25
2022/07/23 07:03:38;;;;;;;5.45;3.50;;;25.60;91.60;;;;;;5031208;28;20025;-25
2022/07/23 07:06:04;;;;;;;4.68;3.42;;;25.50;91.40;;;;;;5031422;28;20459;-25
2022/07/23 07:08:30;;;;;;;5.57;3.40;;;25.50;91.50;;;;;;5031388;28;20108;-25
2022/07/23 07:10:55;;;;;;;9.73;3.97;;;25.40;91.70;;;;;;5031401;28;20419;-26
2022/07/23 07:13:21;;;;;;;6.03;3.38;;;25.40;91.90;;;;;;5031306;28;20037;-25
2022/07/23 07:15:47;;;;;;;4.68;3.80;;;25.30;92.10;;;;;;5031401;28;20103;-26
2022/07/23 07:18:12;;;;;;;4.28;3.63;;;25.30;92.10;;;;;;5031002;28;20030;-25
2022/07/23 07:20:38;;;;;;;6.75;3.53;;;25.40;92.10;;;;;;5031338;28;20026;-25
2022/07/23 07:23:04;;;;;;;8.00;3.97;;;25.40;91.90;;;;;;5031063;28;20402;-25
2022/07/23 07:25:29;;;;;;;5.10;3.58;;;25.50;91.90;;;;;;5031277;28;20029;-25
2022/07/23 07:27:55;;;;;;;6.05;3.67;;;25.50;91.60;;;;;;5032042;28;20079;-25
2022/07/23 07:30:21;;;;;;;4.32;3.33;;;25.50;91.40;;;;;;5034560;28;20071;-25
2022/07/23 07:32:46;;;;;;;7.22;3.55;;;25.60;91.40;;;;;;5034551;28;20100;-25
2022/07/23 07:35:12;;;;;;;5.22;3.35;;;25.50;91.40;;;;;;5034947;28;20034;-25
2022/07/23 07:37:38;;;;;;;8.88;3.50;;;25.50;91.50;;;;;;5034524;28;20029;-25
2022/07/23 07:40:03;;;;;;;4.75;3.53;;;25.70;91.50;;;;;;5034347;28;20087;-25
2022/07/23 07:42:30;;;;;;;6.13;3.40;;;25.70;91.40;;;;;;5034362;28;20065;-25
2022/07/23 07:44:55;;;;;;;5.57;3.42;;;25.90;91.30;;;;;;5034428;28;20485;-25
2022/07/23 07:47:21;;;;;;;6.50;3.50;;;25.90;91.20;;;;;;5034279;28;20017;-25
2022/07/23 07:49:47;;;;;;;7.00;3.22;;;26.10;91.10;;;;;;5034140;28;20076;-25
2022/07/23 07:52:12;;;;;;;4.60;3.40;;;26.10;91.00;;;;;;5034374;28;20025;-25
2022/07/23 07:54:38;;;;;;;4.25;3.50;;;26.10;91.00;;;;;;5034195;28;20017;-25
2022/07/23 07:57:03;;;;;;;6.22;3.72;;;26.20;90.90;;;;;;5034258;28;20033;-25
2022/07/23 07:59:29;;;;;;;4.40;3.30;;;26.30;90.90;;;;;;5034008;28;20033;-25
2022/07/23 08:01:55;;;;;;;5.20;3.65;;;26.30;90.90;;;;;;5033948;28;20034;-25
2022/07/23 08:04:21;;;;;;;4.25;3.20;;;26.30;90.90;;;;;;5016173;28;20021;-25
2022/07/23 08:06:46;;;;;;;5.40;3.60;;;26.30;90.90;;;;;;5034116;28;20022;-25
2022/07/23 08:09:12;;;;;;;3.88;3.58;;;26.30;90.90;;;;;;5033743;28;20395;-25
2022/07/23 08:11:37;;;;;;;5.82;3.42;;;26.30;90.80;;;;;;5033976;28;20458;-25
2022/07/23 08:14:03;;;;;;;5.53;3.97;;;26.30;90.80;;;;;;5033905;28;20025;-25
2022/07/23 08:16:29;;;;;;;5.53;3.70;;;26.30;90.80;;;;;;5033955;28;20802;-25
2022/07/23 08:18:55;;;;;;;3.53;3.15;;;26.40;90.80;;;;;;5033613;28;20418;-25
2022/07/23 08:21:20;;;;;;;4.20;3.17;;;26.40;90.80;;;;;;5033748;28;20025;-25
2022/07/23 08:23:46;;;;;;;5.50;3.58;;;26.40;90.80;;;;;;5033385;28;20033;-25
2022/07/23 08:26:12;;;;;;;4.63;3.40;;;26.40;90.70;;;;;;5033665;28;20053;-25
2022/07/23 08:28:37;;;;;;;5.95;3.00;;;26.40;90.70;;;;;;5033248;28;20017;-25
2022/07/23 08:31:05;;;;;;;3.80;3.08;;;26.20;88.50;;;;;;5033462;28;20507;-25
2022/07/23 08:33:31;;;;;;;4.88;3.38;;;26.10;89.60;;;;;;5033292;28;20028;-26
2022/07/23 08:35:57;;;;;;;5.00;3.55;;;26.00;89.90;;;;;;5033460;28;20394;-26
2022/07/23 08:38:24;;;;;;;8.75;3.88;;;26.00;89.70;;;;;;5033101;28;20033;-26
2022/07/23 08:40:52;;;;;;;6.68;3.95;;;26.00;90.00;;;;;;5033234;28;20096;-25
2022/07/23 08:43:21;;;;;;;5.28;3.53;;;26.10;90.10;;;;;;5033219;28;20057;-25
2022/07/23 08:45:48;;;;;;;6.90;4.20;;;26.10;90.10;;;;;;5033182;28;20454;-25
2022/07/23 08:48:20;;;;;;;4.60;3.88;;;26.30;90.00;;;;;;5033062;28;20120;-25
2022/07/23 08:50:49;;;;;;;4.95;3.90;;;26.40;90.00;;;;;;5033200;28;20022;-25
2022/07/23 08:53:16;;;;;;;5.30;3.78;;;26.50;90.00;;;;;;5033046;28;20083;-26
2022/07/23 08:55:44;;;;;;;6.10;3.65;;;26.50;89.90;;;;;;5033068;28;20030;-26
2022/07/23 08:58:10;;;;;;;4.18;3.55;;;26.60;89.90;;;;;;5032779;28;20021;-25
2022/07/23 09:00:35;;;;;;;6.38;3.38;;;26.60;89.80;;;;;;5032769;28;20029;-26
2022/07/23 09:03:02;;;;;;;6.38;3.83;;;26.60;86.90;;;;;;5032809;28;20029;-26
2022/07/23 09:05:27;;;;;;;4.70;3.47;;;26.50;87.10;;;;;;5032886;28;20486;-25
2022/07/23 09:08:16;;;;;;;5.10;3.70;;;26.50;87.50;;;;;;5014976;28;20067;-26
2022/07/23 09:10:50;;;;;;;4.03;3.25;;;26.60;87.80;;;;;;5032754;28;20014;-26
2022/07/23 09:13:33;;;;;;;3.97;3.53;;;26.70;88.10;;;;;;5032701;28;20430;-26
2022/07/23 09:16:02;;;;;;;5.53;3.58;;;26.70;88.10;;;;;;5014969;28;20087;-26
2022/07/23 09:18:39;;;;;;;8.57;3.50;;;26.70;86.70;;;;;;5032403;28;20510;-26
2022/07/23 09:21:28;;;;;;;3.92;3.30;;;26.70;86.60;;;;;;5032566;28;20096;-26
2022/07/23 09:24:00;;;;;;;5.25;3.70;;;26.70;87.80;;;;;;5032312;28;20124;-26
2022/07/23 09:26:32;;;;;;;4.10;3.03;;;26.80;87.20;;;;;;5032504;28;20048;-25
2022/07/23 09:29:03;;;;;;;6.30;3.45;;;26.80;87.30;;;;;;5032226;28;20163;-25
2022/07/23 09:31:36;;;;;;;10.13;3.80;;;26.80;87.40;;;;;;5032274;28;20017;-25
2022/07/23 09:34:17;;;;;;;11.02;3.05;;;26.80;87.10;;;;;;5032325;28;20032;-26
2022/07/23 09:36:43;;;;;;;6.38;3.13;;;26.80;86.80;;;;;;5032333;28;20473;-25
2022/07/23 09:39:10;;;;;;;5.15;3.30;;;26.80;87.00;;;;;;5032091;28;20052;-25
2022/07/23 09:41:42;;;;;;;7.35;3.33;;;26.80;87.10;;;;;;5032276;28;20079;-25
2022/07/23 09:44:10;;;;;;;9.40;3.60;;;26.90;88.00;;;;;;5031939;28;20087;-25
2022/07/23 09:46:36;;;;;;;5.20;3.55;;;26.90;87.30;;;;;;5032185;28;20017;-25
2022/07/23 09:49:11;;;;;;;7.18;3.30;;;27.00;87.40;;;;;;5031998;28;20386;-25
2022/07/23 09:51:57;;;;;;;5.80;3.90;;;27.00;87.40;;;;;;5031502;28;20026;-25
2022/07/23 09:54:29;;;;;;;6.47;3.90;;;27.00;87.40;;;;;;5031980;28;20437;-26
2022/07/23 09:56:56;;;;;;;5.32;3.70;;;27.10;87.50;;;;;;5032051;28;20482;-26
2022/07/23 09:59:28;;;;;;;6.25;3.92;;;27.10;87.50;;;;;;5031676;28;20064;-25
2022/07/23 10:01:56;;;;;;;5.20;3.78;;;27.10;88.30;;;;;;5031938;28;20025;-26
2022/07/23 10:04:23;;;;;;;8.10;4.00;;;27.10;87.50;;;;;;5031871;28;20033;-25
2022/07/23 10:06:52;;;;;;;5.80;3.88;;;27.20;87.60;;;;;;5031918;28;20022;-25
2022/07/23 10:09:27;;;;;;;4.82;3.80;;;27.20;87.60;;;;;;5031591;28;20056;-25
2022/07/23 10:11:58;;;;;;;4.10;3.38;;;27.20;87.60;;;;;;5031944;28;20083;-26
2022/07/23 10:14:25;;;;;;;5.32;4.10;;;27.20;87.70;;;;;;5031790;28;20518;-26
2022/07/23 10:16:51;;;;;;;4.50;3.85;;;27.30;87.70;;;;;;5031851;28;20022;-25
2022/07/23 10:19:18;;;;;;;4.65;3.60;;;27.30;87.80;;;;;;5031564;28;20025;-25
2022/07/23 10:21:54;;;;;;;5.95;4.00;;;27.30;87.80;;;;;;5031635;28;20083;-26
2022/07/23 10:25:01;;;;;;;3.97;3.58;;;27.30;87.80;;;;;;5031616;28;20033;-26
2022/07/23 10:27:46;;;;;;;4.35;3.67;;;27.40;87.90;;;;;;5031254;28;20038;-26
2022/07/23 10:30:20;;;;;;;;;;;27.30;87.90;;;;;;5031917;28;20053;-25
2022/07/23 10:32:55;;;;;;;5.03;4.18;;;27.40;88.00;;;;;;5031739;28;20357;-25
2022/07/23 10:35:33;;;;;;;8.10;3.70;;;27.30;87.90;;;;;;5031602;28;20021;-26
2022/07/23 10:38:12;;;;;;;5.70;3.92;;;27.30;88.70;;;;;;5031567;28;20040;-26
2022/07/23 10:41:03;;;;;;;4.50;3.58;;;27.30;88.10;;;;;;5031668;28;20017;-26
2022/07/23 10:43:30;;;;;;;4.45;4.00;;;27.30;88.10;;;;;;5031449;28;20033;-25
2022/07/23 10:46:16;;;;;;;4.47;4.07;;;27.30;88.10;;;;;;5031552;28;20017;-25
2022/07/23 10:48:41;;;;;;;4.30;3.90;;;27.40;88.10;;;;;;5030959;28;20033;-25
2022/07/23 10:51:15;;;;;;;4.47;3.85;;;27.40;88.00;;;;;;5031510;28;20088;-25
2022/07/23 10:54:00;;;;;;;4.68;4.00;;;27.40;88.00;;;;;;5031442;28;20037;-25
2022/07/23 10:56:56;;;;;;;3.95;3.65;;;27.50;88.10;;;;;;5031454;28;20433;-25
2022/07/23 10:59:22;;;;;;;3.72;3.42;;;27.40;88.00;;;;;;5031166;28;20053;-25
2022/07/23 11:01:48;;;;;;;4.43;3.75;;;27.50;88.10;;;;;;5031763;28;20491;-25
2022/07/23 11:04:14;;;;;;;4.28;3.88;;;27.50;88.10;;;;;;5035030;28;20462;-25
2022/07/23 11:06:48;;;;;;;4.53;4.10;;;27.50;88.10;;;;;;5035134;28;20053;-25
2022/07/23 11:09:27;;;;;;;4.55;3.97;;;27.50;88.10;;;;;;5017151;28;20482;-25
2022/07/23 11:12:20;;;;;;;4.80;3.90;;;27.60;88.10;;;;;;5034987;28;20033;-26
2022/07/23 11:15:19;;;;;;;5.13;4.15;;;27.60;88.00;;;;;;5034922;28;20032;-26
2022/07/23 11:17:50;;;;;;;4.20;3.80;;;27.70;88.10;;;;;;5034839;28;20079;-26
2022/07/23 11:20:21;;;;;;;4.15;3.75;;;27.70;88.00;;;;;;5034682;28;20057;-25
2022/07/23 11:22:58;;;;;;;4.50;4.00;;;27.70;88.00;;;;;;5034972;28;20408;-26
2022/07/23 11:25:29;;;;;;;4.32;3.92;;;27.80;87.90;;;;;;5035012;28;20505;-26
2022/07/23 11:28:11;;;;;;;4.63;4.13;;;27.80;87.90;;;;;;5034651;28;20084;-26
2022/07/23 11:30:39;;;;;;;4.93;4.40;;;27.80;87.90;;;;;;5016857;28;20051;-27
2022/07/23 11:33:08;;;;;;;4.53;4.13;;;27.80;87.80;;;;;;5034526;28;20415;-27
2022/07/23 11:35:35;;;;;;;5.20;3.90;;;27.80;87.80;;;;;;5034730;28;20033;-27
2022/07/23 11:38:21;;;;;;;4.80;4.30;;;27.80;87.80;;;;;;5034494;28;20034;-27
2022/07/23 11:40:56;;;;;;;4.90;4.40;;;27.90;87.90;;;;;;5034397;28;20529;-27
2022/07/23 11:43:22;;;;;;;4.70;4.00;;;27.90;87.90;;;;;;5034431;28;20388;-27
2022/07/23 11:45:50;;;;;;;4.50;4.10;;;27.90;87.80;;;;;;5034470;28;20028;-27
2022/07/23 11:48:28;;;;;;;5.05;4.20;;;27.90;87.90;;;;;;5034194;28;20115;-27
2022/07/23 11:50:55;;;;;;;5.38;4.20;;;27.90;88.00;;;;;;5034439;28;20026;-27
2022/07/23 11:53:24;;;;;;;4.53;4.13;;;27.80;88.00;;;;;;5034139;28;20025;-27
2022/07/23 11:55:51;;;;;;;4.53;4.07;;;27.80;88.10;;;;;;5034247;28;20014;-27
2022/07/23 11:58:16;;;;;;;4.93;4.43;;;27.80;88.10;;;;;;5034033;28;20390;-27
2022/07/23 12:00:42;;;;;;;4.68;4.05;;;27.80;88.10;;;;;;5034322;28;20017;-27
2022/07/23 12:03:08;;;;;;;5.45;4.22;;;27.90;88.20;;;;;;5033988;28;20022;-27
2022/07/23 12:05:37;;;;;;;4.38;3.97;;;27.90;88.20;;;;;;5034134;28;20104;-27
2022/07/23 12:08:06;;;;;;;4.85;4.35;;;27.90;88.10;;;;;;5033878;28;20056;-27
2022/07/23 12:10:36;;;;;;;4.43;4.03;;;27.90;88.00;;;;;;5033848;28;20031;-27
2022/07/23 12:13:04;;;;;;;4.65;4.25;;;27.90;88.10;;;;;;5034023;28;20026;-27
2022/07/23 12:15:45;;;;;;;5.03;4.53;;;27.90;88.20;;;;;;5015456;28;20394;-27
2022/07/23 12:18:13;;;;;;;4.30;3.90;;;27.90;88.20;;;;;;5033681;28;20029;-27
2022/07/23 12:20:40;;;;;;;4.80;4.40;;;27.90;88.20;;;;;;5033786;28;20079;-27
2022/07/23 12:23:07;;;;;;;4.75;4.28;;;27.90;88.20;;;;;;5033722;28;20029;-27
2022/07/23 12:25:42;;;;;;;4.18;3.83;;;27.90;88.30;;;;;;5033881;28;20026;-27
2022/07/23 12:28:12;;;;;;;4.93;4.43;;;27.80;88.30;;;;;;5033654;28;20028;-27
2022/07/23 12:30:43;;;;;;;4.85;4.35;;;27.80;88.30;;;;;;5033630;28;20025;-27
2022/07/23 12:33:12;;;;;;;4.45;4.05;;;27.80;88.40;;;;;;5033569;28;20112;-27
2022/07/23 12:35:44;;;;;;;4.45;4.05;;;27.70;88.50;;;;;;5033564;28;20025;-27
2022/07/23 12:38:17;;;;;;;5.18;4.70;;;27.70;88.60;;;;;;5033525;28;20056;-27
2022/07/23 12:40:46;;;;;;;4.80;4.40;;;27.70;88.60;;;;;;5015683;28;20053;-27
2022/07/23 12:43:23;;;;;;;4.55;4.15;;;27.70;88.60;;;;;;5033208;28;20030;-27
2022/07/23 12:46:05;;;;;;;5.45;4.25;;;27.70;88.70;;;;;;5033322;28;20490;-27
2022/07/23 12:48:36;;;;;;;5.03;4.63;;;27.70;88.70;;;;;;5033138;28;20041;-27
2022/07/23 12:51:04;;;;;;;5.10;4.60;;;27.70;88.80;;;;;;5033409;28;20024;-27
2022/07/23 12:53:31;;;;;;;4.93;4.53;;;27.70;88.80;;;;;;5033150;28;20048;-27